Time;durP1;ratioP1;P1;durP2;ratioP2;P2;SDS_P1;SDS_P2;PMS_P1;PMS_P2;Temp;Humidity;BMP_temperature;BMP_pressure;BME280_temperature;BME280_humidity;BME280_pressure;Samples;Min_cycle;Max_cycle;Signal;HPM_P1;HPM_P2
2022/03/07 00:01:42;;;;;;;20.35;9.60;;;;;;;3.24;44.77;100174.91;4398867;32;31953;-90
2022/03/07 00:04:14;;;;;;;17.77;8.55;;;;;;;3.51;44.35;100164.25;4404077;32;33997;-87
2022/03/07 00:06:41;;;;;;;19.35;9.55;;;;;;;3.39;44.02;100164.34;4409258;32;33938;-87
2022/03/07 00:09:10;;;;;;;18.17;9.00;;;;;;;3.39;44.69;100171.31;4391433;32;32801;-87
2022/03/07 00:11:37;;;;;;;14.20;8.30;;;;;;;3.36;44.89;100179.16;4404587;32;32373;-87
2022/03/07 00:14:05;;;;;;;16.80;8.82;;;;;;;3.31;44.87;100166.13;4390661;32;33576;-87
2022/03/07 00:16:34;;;;;;;18.10;9.07;;;;;;;3.35;44.30;100178.28;4391286;32;34008;-87
2022/03/07 00:19:02;;;;;;;22.05;9.57;;;;;;;3.34;44.41;100169.59;4391278;32;34020;-87
2022/03/07 00:21:30;;;;;;;23.98;10.45;;;;;;;3.39;44.51;100172.16;4399461;32;32376;-87
2022/03/07 00:23:58;;;;;;;18.20;10.23;;;;;;;3.42;44.48;100177.38;4383422;32;33132;-87
2022/03/07 00:26:26;;;;;;;18.48;8.55;;;;;;;3.47;44.33;100174.72;4372677;32;33347;-87
2022/03/07 00:28:54;;;;;;;16.17;8.75;;;;;;;3.28;44.32;100180.09;4395155;32;33659;-87
2022/03/07 00:31:23;;;;;;;20.65;9.43;;;;;;;3.17;44.90;100187.13;4403730;32;32889;-87
2022/03/07 00:33:51;;;;;;;17.20;9.02;;;;;;;3.40;44.25;100186.06;4404035;32;33704;-87
2022/03/07 00:36:20;;;;;;;17.02;9.77;;;;;;;3.30;45.12;100186.16;4403871;32;34906;-87
2022/03/07 00:38:48;;;;;;;18.12;9.13;;;;;;;3.37;44.27;100189.59;4403727;32;32888;-87
2022/03/07 00:41:15;;;;;;;17.27;10.00;;;;;;;3.44;44.27;100177.34;4403831;32;32872;-89
2022/03/07 00:43:44;;;;;;;17.65;8.35;;;;;;;3.34;44.92;100177.44;4403906;32;33250;-88
2022/03/07 00:46:12;;;;;;;17.27;9.23;;;;;;;3.28;44.72;100177.47;4397464;32;35521;-89
2022/03/07 00:48:40;;;;;;;19.45;9.85;;;;;;;3.48;43.98;100174.69;4404020;32;32768;-90
2022/03/07 00:51:10;;;;;;;20.08;9.63;;;;;;;3.55;43.71;100171.12;4378876;32;32715;-89
2022/03/07 00:53:38;;;;;;;18.45;9.57;;;;;;;3.20;44.82;100178.41;4385312;32;32982;-89
2022/03/07 00:56:07;;;;;;;18.70;9.23;;;;;;;3.20;45.03;100176.66;4386809;32;33385;-89
2022/03/07 00:58:35;;;;;;;21.27;10.18;;;;;;;3.41;44.19;100177.38;4395773;32;32669;-89
2022/03/07 01:01:03;;;;;;;18.15;9.95;;;;;;;3.37;44.56;100173.94;4379420;32;32561;-90
2022/03/07 01:03:51;;;;;;;19.00;8.45;;;;;;;2.98;45.18;100178.56;4392856;32;32270;-87
2022/03/07 01:06:19;;;;;;;18.70;9.32;;;;;;;3.39;44.34;100173.91;4391440;32;33092;-85
2022/03/07 01:08:46;;;;;;;15.80;8.25;;;;;;;3.12;44.85;100170.62;4391500;32;32272;-85
2022/03/07 01:11:16;;;;;;;18.42;8.50;;;;;;;3.34;44.27;100153.06;4408741;32;33613;-84
2022/03/07 01:13:44;;;;;;;24.42;10.40;;;;;;;3.00;45.61;100161.16;4410517;32;33737;-85
2022/03/07 01:16:11;;;;;;;16.37;7.97;;;;;;;3.44;44.33;100156.47;4384481;32;33331;-85
2022/03/07 01:18:40;;;;;;;18.00;8.65;;;;;;;3.34;44.30;100161.75;4385876;32;33946;-85
2022/03/07 01:21:07;;;;;;;17.45;8.38;;;;;;;3.45;44.16;100166.03;4390393;32;33186;-85
2022/03/07 01:23:35;;;;;;;19.55;9.10;;;;;;;3.29;44.91;100158.34;4391175;32;32769;-85
2022/03/07 01:26:03;;;;;;;15.43;8.52;;;;;;;3.18;45.10;100165.38;4403299;32;33443;-85
2022/03/07 01:28:31;;;;;;;18.45;8.82;;;;;;;3.40;44.68;100170.41;4403474;32;32934;-85
2022/03/07 01:30:59;;;;;;;22.30;9.48;;;;;;;3.68;43.87;100161.44;4403386;32;32916;-85
2022/03/07 01:33:27;;;;;;;17.17;9.25;;;;;;;3.48;44.64;100158.16;4383900;32;35176;-85
2022/03/07 01:35:55;;;;;;;20.15;9.75;;;;;;;3.44;44.32;100159.06;4390912;32;34769;-85
2022/03/07 01:38:23;;;;;;;19.77;8.95;;;;;;;3.39;44.65;100158.25;4402793;32;32299;-84
2022/03/07 01:40:51;;;;;;;16.60;9.02;;;;;;;3.29;44.94;100160.06;4383735;32;32708;-85
2022/03/07 01:43:20;;;;;;;20.77;8.98;;;;;;;3.30;44.74;100154.84;4409360;32;33742;-85
2022/03/07 01:45:47;;;;;;;21.55;9.65;;;;;;;3.59;43.91;100151.09;4402154;32;32995;-85
2022/03/07 01:48:15;;;;;;;20.67;9.45;;;;;;;3.73;43.30;100154.44;4407592;32;32765;-87
2022/03/07 01:50:43;;;;;;;16.73;8.75;;;;;;;3.79;43.22;100159.59;4396063;32;34360;-88
2022/03/07 01:53:12;;;;;;;17.08;9.43;;;;;;;3.39;44.52;100158.25;4385140;32;32580;-88
2022/03/07 01:55:39;;;;;;;23.83;9.00;;;;;;;3.52;44.62;100150.31;4390945;32;34270;-89
2022/03/07 01:58:08;;;;;;;21.62;9.88;;;;;;;3.65;43.98;100153.63;4391562;32;32675;-89
2022/03/07 02:00:35;;;;;;;17.12;9.05;;;;;;;3.56;44.17;100149.41;4406223;32;33009;-89
2022/03/07 02:03:04;;;;;;;17.33;9.27;;;;;;;3.55;44.10;100155.47;4411568;32;32313;-88
2022/03/07 02:05:33;;;;;;;18.15;9.88;;;;;;;3.60;44.13;100156.28;4395442;32;34132;-89
2022/03/07 02:08:00;;;;;;;16.12;8.48;;;;;;;3.34;44.78;100159.16;4391624;32;33680;-90
2022/03/07 02:10:30;;;;;;;16.75;9.07;;;;;;;3.50;44.43;100153.78;4366781;32;32861;-90
2022/03/07 02:12:59;;;;;;;16.77;9.85;;;;;;;3.68;44.09;100153.63;4385344;32;33444;-89
2022/03/07 02:15:26;;;;;;;19.30;8.90;;;;;;;3.56;44.50;100145.87;4407812;32;35656;-89
2022/03/07 02:17:55;;;;;;;18.15;9.43;;;;;;;3.56;44.34;100156.34;4396032;32;33644;-89
2022/03/07 02:20:24;;;;;;;20.15;9.63;;;;;;;3.81;43.17;100152.63;4403685;32;32855;-89
2022/03/07 02:22:52;;;;;;;20.55;10.00;;;;;;;3.36;44.26;100153.03;4385174;32;32676;-89
2022/03/07 02:25:20;;;;;;;21.77;10.32;;;;;;;3.62;44.04;100145.84;4391305;32;34118;-89
2022/03/07 02:27:49;;;;;;;19.73;10.25;;;;;;;3.62;44.12;100156.28;4391545;32;33247;-90
2022/03/07 02:30:17;;;;;;;19.62;9.50;;;;;;;3.38;44.47;100148.69;4378273;32;32359;-88
2022/03/07 02:32:45;;;;;;;21.02;9.63;;;;;;;3.44;44.11;100146.03;4386541;32;32461;-88
2022/03/07 02:35:14;;;;;;;15.40;9.35;;;;;;;3.32;44.65;100147.88;4408881;32;33649;-90
2022/03/07 02:37:42;;;;;;;21.30;10.32;;;;;;;3.30;44.94;100144.41;4379277;32;32970;-89
2022/03/07 02:40:20;;;;;;;17.25;9.98;;;;;;;3.29;44.80;100142.66;4378234;32;32626;-90
2022/03/07 02:43:08;;;;;;;21.52;10.63;;;;;;;3.15;45.52;100144.53;4395336;32;33221;-90
2022/03/07 02:45:35;;;;;;;16.95;9.32;;;;;;;3.56;44.41;100151.09;4390805;32;33538;-89
2022/03/07 02:48:04;;;;;;;25.08;10.15;;;;;;;3.21;44.96;100154.91;4409768;32;33058;-90
2022/03/07 02:50:32;;;;;;;18.95;9.88;;;;;;;3.40;44.33;100158.22;4374766;32;32146;-89
2022/03/07 02:53:00;;;;;;;18.00;9.05;;;;;;;3.38;44.56;100159.13;4384766;32;32736;-88
2022/03/07 02:55:28;;;;;;;21.35;10.00;;;;;;;2.85;45.21;100165.59;4408352;32;33896;-87
2022/03/07 02:57:56;;;;;;;18.08;8.88;;;;;;;2.82;46.17;100167.38;4377287;32;33064;-88
2022/03/07 03:00:24;;;;;;;17.30;9.43;;;;;;;2.99;45.93;100163.75;4384267;32;32127;-88
2022/03/07 03:02:52;;;;;;;22.08;10.13;;;;;;;3.19;45.61;100164.50;4390240;32;32726;-88
2022/03/07 03:05:20;;;;;;;21.73;10.98;;;;;;;3.42;44.35;100168.66;4378575;32;32325;-90
2022/03/07 03:08:07;;;;;;;19.58;10.18;;;;;;;3.63;43.69;100158.03;4398130;32;32738;-89
2022/03/07 03:10:35;;;;;;;20.33;10.32;;;;;;;3.27;44.77;100165.28;4409816;32;32760;-89
2022/03/07 03:13:02;;;;;;;20.73;10.70;;;;;;;3.49;44.28;100159.91;4372792;32;32716;-89
2022/03/07 03:15:30;;;;;;;20.90;9.93;;;;;;;3.46;43.96;100170.34;4390207;32;33462;-88
2022/03/07 03:17:59;;;;;;;23.02;10.00;;;;;;;3.26;44.46;100174.00;4402442;32;32995;-88
2022/03/07 03:20:26;;;;;;;26.37;11.52;;;;;;;3.14;44.78;100184.56;4371034;32;32050;-87
2022/03/07 03:22:54;;;;;;;20.45;10.63;;;;;;;2.94;45.63;100186.41;4396823;32;32338;-87
2022/03/07 03:25:22;;;;;;;21.23;11.68;;;;;;;2.92;45.54;100182.97;4370918;32;32725;-87
2022/03/07 03:27:50;;;;;;;18.95;10.13;;;;;;;3.27;44.52;100183.56;4378936;32;33704;-87
2022/03/07 03:30:18;;;;;;;18.23;9.23;;;;;;;3.39;44.34;100189.56;4384634;32;33851;-88
2022/03/07 03:32:46;;;;;;;21.85;11.15;;;;;;;3.27;44.85;100180.94;4403817;32;33039;-88
2022/03/07 03:35:14;;;;;;;15.90;9.30;;;;;;;2.97;45.58;100192.47;4384269;32;33404;-87
2022/03/07 03:37:41;;;;;;;17.55;10.32;;;;;;;3.22;45.05;100184.47;4410666;32;32858;-88
2022/03/07 03:40:11;;;;;;;21.65;10.40;;;;;;;3.22;45.08;100187.94;4392010;32;34227;-87
2022/03/07 03:42:39;;;;;;;22.13;11.20;;;;;;;3.18;45.13;100186.25;4387735;32;33967;-87
2022/03/07 03:45:08;;;;;;;18.48;9.98;;;;;;;3.19;45.26;100188.00;4386856;32;33444;-87
2022/03/07 03:47:42;;;;;;;25.17;10.02;;;;;;;2.93;46.16;100185.53;4404299;32;33654;-87
2022/03/07 03:50:12;;;;;;;18.90;8.68;;;;;;;2.91;45.84;100191.66;4378612;32;32586;-86
2022/03/07 03:52:40;;;;;;;19.73;10.57;;;;;;;2.70;46.39;100188.28;4384304;32;32805;-86
2022/03/07 03:55:10;;;;;;;20.20;10.75;;;;;;;2.99;45.60;100200.28;4372408;32;33014;-86
2022/03/07 03:57:39;;;;;;;20.55;10.95;;;;;;;3.03;45.25;100191.56;4397273;32;32710;-86
2022/03/07 04:00:09;;;;;;;21.75;10.85;;;;;;;3.21;44.83;100188.84;4400229;32;31520;-85
2022/03/07 04:02:38;;;;;;;21.58;11.02;;;;;;;3.14;44.97;100196.72;4391030;32;34327;-86
2022/03/07 04:05:07;;;;;;;22.67;10.25;;;;;;;2.96;45.39;100200.31;4385920;32;34453;-86
2022/03/07 04:07:34;;;;;;;21.37;10.70;;;;;;;2.75;45.83;100196.97;4390852;32;33856;-86
2022/03/07 04:10:02;;;;;;;25.67;11.12;;;;;;;2.85;45.75;100194.28;4371465;32;33750;-86
2022/03/07 04:12:30;;;;;;;20.17;10.43;;;;;;;2.79;46.16;100192.59;4378970;32;33590;-86
2022/03/07 04:14:58;;;;;;;27.55;11.55;;;;;;;2.91;45.94;100187.31;4383111;32;33355;-86
2022/03/07 04:17:26;;;;;;;27.13;11.82;;;;;;;2.83;46.41;100192.56;4370835;32;34066;-86
2022/03/07 04:19:54;;;;;;;25.52;11.55;;;;;;;2.99;45.70;100187.25;4378114;32;32865;-86
2022/03/07 04:22:21;;;;;;;23.20;10.98;;;;;;;2.98;46.01;100188.12;4386113;32;33859;-86
2022/03/07 04:24:48;;;;;;;25.02;13.02;;;;;;;2.76;46.41;100188.28;4384297;32;33619;-89
2022/03/07 04:27:17;;;;;;;20.67;10.43;;;;;;;2.87;46.16;100192.56;4372255;32;33116;-85
2022/03/07 04:29:44;;;;;;;21.23;11.70;;;;;;;2.93;45.75;100184.69;4378875;32;32256;-86
2022/03/07 04:32:12;;;;;;;21.58;10.85;;;;;;;3.03;45.64;100197.66;4379029;32;33672;-86
2022/03/07 04:34:40;;;;;;;22.17;11.18;;;;;;;2.99;46.20;100195.06;4374094;32;33411;-86
2022/03/07 04:37:07;;;;;;;20.00;10.18;;;;;;;2.85;46.55;100196.91;4390353;32;34578;-85
2022/03/07 04:39:35;;;;;;;26.50;11.50;;;;;;;2.88;45.86;100195.16;4390904;32;33030;-85
2022/03/07 04:42:03;;;;;;;21.87;10.35;;;;;;;3.00;45.91;100195.09;4382196;32;32549;-85
2022/03/07 04:44:31;;;;;;;23.17;10.60;;;;;;;3.26;45.07;100194.88;4385207;32;34723;-84
2022/03/07 04:46:59;;;;;;;24.20;11.32;;;;;;;3.15;45.44;100191.50;4385803;32;33023;-85
2022/03/07 04:49:27;;;;;;;25.83;11.45;;;;;;;3.03;45.85;100192.44;4384991;32;34447;-86
2022/03/07 04:51:55;;;;;;;22.62;10.50;;;;;;;3.09;45.69;100186.34;4373038;32;32711;-86
2022/03/07 04:54:23;;;;;;;23.33;10.95;;;;;;;3.14;45.75;100189.78;4373620;32;33233;-85
2022/03/07 04:56:52;;;;;;;19.08;11.15;;;;;;;3.12;45.47;100201.94;4378603;32;32782;-86
2022/03/07 04:59:19;;;;;;;18.83;10.90;;;;;;;3.01;45.21;100198.56;4378766;32;33679;-87
2022/03/07 05:01:48;;;;;;;24.05;11.30;;;;;;;3.19;44.77;100201.03;4385601;32;32559;-87
2022/03/07 05:04:16;;;;;;;23.98;10.65;;;;;;;3.15;45.19;100191.50;4385681;32;34425;-87
2022/03/07 05:06:44;;;;;;;23.12;12.07;;;;;;;3.06;45.46;100191.56;4391306;32;33809;-87
2022/03/07 05:09:11;;;;;;;27.27;12.20;;;;;;;2.97;46.19;100194.22;4385644;32;32562;-87
2022/03/07 05:11:39;;;;;;;21.42;11.07;;;;;;;3.07;45.72;100201.97;4382914;32;33483;-87
2022/03/07 05:14:07;;;;;;;23.75;11.55;;;;;;;3.12;45.78;100196.72;4390842;32;33984;-87
2022/03/07 05:16:35;;;;;;;20.70;11.40;;;;;;;2.88;46.46;100197.75;4381898;32;33910;-87
2022/03/07 05:19:03;;;;;;;21.48;11.10;;;;;;;3.08;45.91;100201.09;4385557;32;32735;-87
2022/03/07 05:21:31;;;;;;;21.00;11.30;;;;;;;2.95;46.21;100193.37;4397764;32;33427;-87
2022/03/07 05:23:59;;;;;;;22.08;10.15;;;;;;;3.13;45.49;100197.59;4398313;32;32291;-87
2022/03/07 05:26:27;;;;;;;18.60;10.52;;;;;;;3.06;46.17;100196.78;4390899;32;34300;-87
2022/03/07 05:28:57;;;;;;;24.20;10.85;;;;;;;3.09;46.40;100201.97;4376354;32;33927;-87
2022/03/07 05:31:24;;;;;;;20.80;10.38;;;;;;;2.81;46.71;100196.94;4377934;32;33956;-89
2022/03/07 05:33:52;;;;;;;23.58;11.02;;;;;;;3.27;45.79;100194.00;4378935;32;32411;-89
2022/03/07 05:36:20;;;;;;;21.80;10.55;;;;;;;3.18;45.76;100196.69;4369042;32;34037;-89
2022/03/07 05:38:48;;;;;;;18.42;9.82;;;;;;;3.39;44.92;100200.88;4390742;32;33607;-87
2022/03/07 05:41:16;;;;;;;21.02;11.10;;;;;;;3.17;45.76;100204.53;4422781;32;32867;-87
2022/03/07 05:43:43;;;;;;;18.08;10.52;;;;;;;3.18;45.70;100201.91;4383062;32;33770;-86
2022/03/07 05:46:14;;;;;;;21.90;10.15;;;;;;;3.07;46.18;100208.94;4390816;32;33817;-88
2022/03/07 05:48:42;;;;;;;22.73;11.18;;;;;;;3.18;45.74;100207.13;4370402;32;32380;-88
2022/03/07 05:51:11;;;;;;;22.60;11.38;;;;;;;3.00;46.13;100210.72;4390642;32;33714;-88
2022/03/07 05:53:39;;;;;;;26.15;11.93;;;;;;;3.02;46.48;100213.31;4370677;32;34058;-89
2022/03/07 05:56:08;;;;;;;23.20;11.25;;;;;;;2.80;46.40;100208.25;4378395;32;32688;-89
2022/03/07 05:58:35;;;;;;;21.80;10.57;;;;;;;2.79;46.55;100209.09;4377977;32;32992;-89
2022/03/07 06:01:03;;;;;;;24.10;11.57;;;;;;;3.10;46.31;100202.84;4390490;32;33437;-88
2022/03/07 06:03:31;;;;;;;19.40;10.75;;;;;;;3.02;46.37;100211.56;4377938;32;34287;-87
2022/03/07 06:06:00;;;;;;;22.35;12.63;;;;;;;3.19;45.79;100213.22;4391749;32;33667;-88
2022/03/07 06:08:28;;;;;;;22.65;12.15;;;;;;;2.95;45.92;100209.91;4383742;32;32442;-88
2022/03/07 06:10:56;;;;;;;22.00;11.55;;;;;;;2.89;45.94;100214.25;4365899;32;32623;-87
2022/03/07 06:13:23;;;;;;;23.00;11.40;;;;;;;3.18;45.64;100206.25;4395635;32;33988;-88
2022/03/07 06:15:51;;;;;;;21.87;11.93;;;;;;;3.03;45.97;100215.91;4389711;32;33958;-89
2022/03/07 06:18:19;;;;;;;24.42;12.82;;;;;;;3.09;45.54;100212.41;4369630;32;32640;-90
2022/03/07 06:20:47;;;;;;;24.98;12.45;;;;;;;3.06;45.90;100218.50;4395795;32;32590;-90
2022/03/07 06:23:15;;;;;;;27.85;12.98;;;;;;;2.97;45.68;100221.19;4384414;32;32948;-90
2022/03/07 06:25:43;;;;;;;20.58;11.55;;;;;;;2.94;46.71;100223.78;4390069;32;34100;-90
2022/03/07 06:28:11;;;;;;;23.52;12.13;;;;;;;2.90;47.01;100227.31;4378037;32;32528;-89
2022/03/07 06:30:39;;;;;;;22.98;13.07;;;;;;;3.01;46.52;100229.84;4384517;32;33126;-90
2022/03/07 06:33:07;;;;;;;23.90;12.80;;;;;;;2.95;46.74;100229.91;4365522;32;34018;-89
2022/03/07 06:35:35;;;;;;;22.50;12.35;;;;;;;3.18;46.01;100233.25;4374755;32;32448;-90
2022/03/07 06:38:03;;;;;;;26.20;12.60;;;;;;;3.01;46.74;100232.47;4372775;32;32290;-90
2022/03/07 06:40:33;;;;;;;25.08;13.10;;;;;;;3.07;46.20;100229.81;4384639;32;33926;-91
2022/03/07 06:43:01;;;;;;;23.60;12.25;;;;;;;2.81;47.66;100228.22;4384869;32;33735;-91
2022/03/07 06:45:30;;;;;;;26.83;12.48;;;;;;;2.98;47.29;100229.88;4384073;32;32989;-91
2022/03/07 06:47:59;;;;;;;33.42;11.90;;;;;;;2.86;48.03;100240.37;4386456;32;32341;-91
2022/03/07 06:50:37;;;;;;;21.37;12.45;;;;;;;3.06;47.53;100239.38;4373966;32;33990;-91
2022/03/07 06:53:22;;;;;;;25.02;12.13;;;;;;;3.06;46.95;100236.78;4374437;32;32972;-93
2022/03/07 06:55:54;;;;;;;22.75;11.93;;;;;;;3.27;46.02;100230.53;4377077;32;33323;-91
2022/03/07 06:58:25;;;;;;;26.55;12.63;;;;;;;3.28;46.27;100236.66;4391366;32;32210;-91
2022/03/07 07:00:53;;;;;;;23.42;12.85;;;;;;;3.53;45.36;100229.50;4372854;32;32643;-92
2022/03/07 07:03:21;;;;;;;22.45;12.37;;;;;;;3.64;45.08;100227.63;4403547;32;33216;-91
2022/03/07 07:05:50;;;;;;;25.08;13.07;;;;;;;3.78;44.91;100236.22;4378558;32;32346;-91
2022/03/07 07:08:17;;;;;;;25.35;13.30;;;;;;;3.78;44.94;100240.56;4371355;32;32346;-91
2022/03/07 07:11:02;;;;;;;24.85;12.90;;;;;;;3.57;45.49;100239.03;4401401;32;32188;-91
2022/03/07 07:13:30;;;;;;;24.48;12.82;;;;;;;3.51;45.79;100239.06;4391531;32;32398;-91
2022/03/07 07:15:58;;;;;;;25.58;13.18;;;;;;;3.03;46.65;100243.75;4391017;32;32894;-91
2022/03/07 07:19:06;;;;;;;26.70;12.75;;;;;;;2.80;47.39;100239.53;4383222;32;32393;-91
2022/03/07 07:21:43;;;;;;;26.40;11.85;;;;;;;3.17;46.19;100241.91;4403720;32;33042;-91
2022/03/07 07:24:12;;;;;;;24.55;12.88;;;;;;;3.25;46.50;100245.34;4390695;32;33039;-91
2022/03/07 07:26:40;;;;;;;21.75;11.12;;;;;;;3.45;46.62;100247.81;4391194;32;33496;-91
2022/03/07 07:29:07;;;;;;;22.80;11.63;;;;;;;3.61;46.01;100238.13;4378455;32;31919;-91
2022/03/07 07:31:56;;;;;;;22.98;11.98;;;;;;;3.49;45.65;100240.81;4380249;32;32707;-91
2022/03/07 07:34:25;;;;;;;24.12;11.60;;;;;;;3.40;45.83;100246.97;4403236;32;34376;-91
2022/03/07 07:36:53;;;;;;;25.05;12.10;;;;;;;3.10;47.16;100257.63;4378467;32;33130;-91
2022/03/07 07:39:43;;;;;;;27.87;12.05;;;;;;;3.39;46.57;100263.53;4400992;32;31930;-90
2022/03/07 07:42:35;;;;;;;22.37;11.90;;;;;;;3.70;45.60;100264.13;4376854;32;33362;-91
2022/03/07 07:45:08;;;;;;;24.20;12.18;;;;;;;3.91;45.57;100270.06;4375697;32;32745;-91
2022/03/07 07:47:38;;;;;;;29.12;13.00;;;;;;;3.69;46.16;100265.03;4363841;32;32641;-91
2022/03/07 07:50:10;;;;;;;21.80;12.35;;;;;;;3.88;45.32;100267.47;4357078;32;32468;-91
2022/03/07 07:52:38;;;;;;;27.33;13.75;;;;;;;3.97;45.20;100262.19;4363471;32;34505;-91
2022/03/07 07:55:23;;;;;;;23.90;12.45;;;;;;;3.36;45.73;100266.16;4358310;32;33308;-91
2022/03/07 07:57:51;;;;;;;23.05;12.13;;;;;;;3.54;45.99;100273.00;4351136;32;33206;-91
2022/03/07 08:00:27;;;;;;;29.80;12.60;;;;;;;3.71;45.81;100272.88;4358168;32;32645;-91
2022/03/07 08:02:59;;;;;;;22.67;12.63;;;;;;;3.73;44.90;100285.03;4361101;32;32586;-90
2022/03/07 08:05:29;;;;;;;25.27;12.57;;;;;;;4.23;43.72;100285.47;4357133;32;33279;-91
2022/03/07 08:08:02;;;;;;;23.70;11.55;;;;;;;3.86;44.82;100283.19;4355137;32;32490;-91
2022/03/07 08:10:33;;;;;;;22.90;11.65;;;;;;;3.94;44.86;100297.06;4353407;32;32466;-91
2022/03/07 08:13:21;;;;;;;22.05;11.85;;;;;;;3.99;44.21;100303.09;4364429;32;33154;-91
2022/03/07 08:15:49;;;;;;;23.40;11.98;;;;;;;3.83;44.12;100297.13;4371387;32;33970;-91
2022/03/07 08:18:41;;;;;;;25.17;11.68;;;;;;;3.79;44.51;100305.00;4378681;32;32996;-91
2022/03/07 08:21:09;;;;;;;24.20;12.23;;;;;;;3.75;45.22;100308.50;4371966;32;32856;-91
2022/03/07 08:24:05;;;;;;;21.87;11.52;;;;;;;3.83;44.23;100297.13;4381698;32;32698;-90
2022/03/07 08:26:34;;;;;;;24.02;12.37;;;;;;;3.96;44.30;100303.12;4382948;32;32685;-90
2022/03/07 08:29:22;;;;;;;25.80;11.98;;;;;;;4.27;42.88;100293.25;4381746;32;33255;-91
2022/03/07 08:32:00;;;;;;;22.87;11.48;;;;;;;3.78;44.30;100306.75;4371251;32;32520;-91
2022/03/07 08:34:29;;;;;;;23.62;10.82;;;;;;;3.91;44.18;100288.37;4356980;32;32714;-90
2022/03/07 08:37:00;;;;;;;22.90;11.27;;;;;;;4.07;43.88;100285.59;4370436;32;32280;-91
2022/03/07 08:39:34;;;;;;;23.45;11.80;;;;;;;4.22;44.44;100274.09;4383658;32;32767;-90
2022/03/07 08:42:21;;;;;;;20.65;10.18;;;;;;;3.96;44.89;100270.91;4371358;32;33839;-91
2022/03/07 08:44:54;;;;;;;24.80;12.27;;;;;;;4.39;44.30;100267.84;4383380;32;33947;-91
2022/03/07 08:47:21;;;;;;;23.12;11.75;;;;;;;4.52;42.71;100261.59;4371100;32;33526;-91
2022/03/07 08:49:51;;;;;;;22.83;12.02;;;;;;;4.49;42.80;100252.03;4389630;32;33083;-90
2022/03/07 08:52:21;;;;;;;22.17;11.12;;;;;;;4.67;42.67;100269.25;4358119;32;33436;-91
2022/03/07 08:54:53;;;;;;;23.42;11.23;;;;;;;4.41;42.60;100269.53;4360596;32;32593;-90
2022/03/07 08:57:41;;;;;;;22.73;10.95;;;;;;;4.49;42.96;100270.34;4372826;32;33928;-90
2022/03/07 09:00:12;;;;;;;26.45;12.57;;;;;;;4.64;43.27;100269.28;4370350;32;33314;-87
2022/03/07 09:03:00;;;;;;;24.58;11.20;;;;;;;4.92;42.63;100271.56;4383150;32;32650;-90
2022/03/07 09:05:28;;;;;;;21.48;10.48;;;;;;;4.87;42.25;100272.47;4382032;32;33324;-90
2022/03/07 09:08:05;;;;;;;23.25;11.35;;;;;;;4.82;42.02;100271.69;4371324;32;33958;-90
2022/03/07 09:10:35;;;;;;;23.70;12.13;;;;;;;5.00;42.03;100270.59;4368822;32;33831;-91
2022/03/07 09:13:20;;;;;;;19.40;11.18;;;;;;;5.37;40.53;100273.53;4380083;32;32742;-89
2022/03/07 09:15:49;;;;;;;19.83;11.35;;;;;;;5.20;41.38;100272.06;4362593;32;33046;-89
2022/03/07 09:18:16;;;;;;;21.75;10.98;;;;;;;4.55;42.03;100259.78;4366466;32;32597;-86
2022/03/07 09:20:44;;;;;;;22.08;12.02;;;;;;;4.84;42.95;100261.19;4383029;32;33974;-87
2022/03/07 09:23:13;;;;;;;20.25;10.55;;;;;;;4.84;41.92;100263.81;4354140;32;32500;-86
2022/03/07 09:25:41;;;;;;;22.13;11.30;;;;;;;5.14;41.14;100262.53;4360480;32;32981;-86
2022/03/07 09:28:09;;;;;;;25.42;11.55;;;;;;;5.29;40.66;100251.84;4382367;32;34173;-86
2022/03/07 09:30:37;;;;;;;23.42;11.82;;;;;;;4.91;42.29;100260.22;4370056;32;32402;-86
2022/03/07 09:33:05;;;;;;;24.15;13.15;;;;;;;4.94;41.68;100259.31;4383394;32;33486;-90
2022/03/07 09:35:33;;;;;;;23.58;11.52;;;;;;;5.26;40.91;100257.09;4364680;32;32963;-89
2022/03/07 09:38:00;;;;;;;22.40;10.77;;;;;;;4.76;41.70;100257.81;4377076;32;33412;-90
2022/03/07 09:40:28;;;;;;;19.98;11.07;;;;;;;4.90;41.56;100260.25;4356538;32;32729;-89
2022/03/07 09:42:56;;;;;;;16.90;10.20;;;;;;;5.22;41.35;100265.94;4362192;32;32892;-90
2022/03/07 09:45:24;;;;;;;27.00;12.32;;;;;;;5.30;40.75;100257.94;4364274;32;32503;-89
2022/03/07 09:47:52;;;;;;;24.27;11.80;;;;;;;5.33;40.91;100258.75;4367562;32;35576;-90
2022/03/07 09:50:20;;;;;;;21.62;12.73;;;;;;;5.02;41.41;100257.47;4386037;32;32859;-91
2022/03/07 09:52:54;;;;;;;20.23;11.52;;;;;;;4.96;42.26;100260.19;4367397;32;33790;-90
2022/03/07 09:55:22;;;;;;;21.23;11.07;;;;;;;5.28;41.14;100255.34;4373698;32;33896;-89
2022/03/07 09:57:51;;;;;;;20.42;11.43;;;;;;;5.09;41.49;100253.87;4367029;32;33392;-90
2022/03/07 10:00:22;;;;;;;25.42;11.85;;;;;;;4.59;43.15;100263.25;4365448;32;32171;-89
2022/03/07 10:02:57;;;;;;;26.40;12.90;;;;;;;4.62;43.02;100260.59;4376291;32;32169;-89
2022/03/07 10:05:32;;;;;;;23.95;11.18;;;;;;;4.98;41.90;100259.25;4376836;32;31878;-89
2022/03/07 10:08:00;;;;;;;19.95;11.80;;;;;;;4.96;42.27;100249.72;4361966;32;33066;-87
2022/03/07 10:10:46;;;;;;;24.27;11.88;;;;;;;4.59;43.70;100248.41;4375769;32;33259;-87
2022/03/07 10:13:14;;;;;;;24.08;12.98;;;;;;;5.15;41.63;100256.41;4385649;32;32485;-86
2022/03/07 10:15:42;;;;;;;18.52;10.93;;;;;;;5.23;41.43;100256.31;4371106;32;33020;-88
2022/03/07 10:18:16;;;;;;;25.20;12.18;;;;;;;5.44;40.71;100260.34;4384818;32;33332;-87
2022/03/07 10:20:55;;;;;;;21.62;11.82;;;;;;;5.36;41.54;100252.59;4380529;32;33689;-87
2022/03/07 10:23:27;;;;;;;26.15;12.18;;;;;;;5.05;41.64;100252.19;4370232;32;34116;-89
2022/03/07 10:26:15;;;;;;;19.83;11.15;;;;;;;5.03;42.36;100248.72;4364647;32;32473;-90
2022/03/07 10:28:53;;;;;;;27.00;13.77;;;;;;;5.35;41.17;100246.50;4376892;32;33140;-91
2022/03/07 10:31:37;;;;;;;30.70;12.60;;;;;;;5.07;41.57;100255.66;4381620;32;33174;-90
2022/03/07 10:34:09;;;;;;;21.67;12.57;;;;;;;5.52;41.07;100248.00;4372377;32;32472;-88
2022/03/07 10:36:57;;;;;;;90.32;33.63;;;;;;;5.42;40.67;100252.53;4369404;32;32582;-91
2022/03/07 10:39:36;;;;;;;69.57;28.25;;;;;;;5.03;42.22;100246.09;4401335;32;33896;-89
2022/03/07 10:42:35;;;;;;;35.10;17.48;;;;;;;5.23;41.93;100238.84;4391667;32;33327;-91
2022/03/07 10:45:06;;;;;;;48.25;23.85;;;;;;;5.37;41.31;100236.87;4391663;32;32614;-90
2022/03/07 10:48:05;;;;;;;27.85;13.35;;;;;;;5.38;41.26;100224.66;4380662;32;33747;-92
2022/03/07 10:50:53;;;;;;;34.85;17.87;;;;;;;5.58;40.13;100219.94;4357826;32;32856;-90
2022/03/07 10:53:24;;;;;;;27.02;14.00;;;;;;;4.85;41.16;100224.56;4360279;32;31947;-92
2022/03/07 10:56:15;;;;;;;28.17;14.85;;;;;;;4.74;42.58;100218.59;4372147;32;32949;-90
2022/03/07 10:58:50;;;;;;;28.45;15.27;;;;;;;5.09;41.30;100218.09;4351977;32;32605;-89
2022/03/07 11:01:28;;;;;;;29.15;15.68;;;;;;;5.13;41.50;100208.47;4349631;32;33011;-89
2022/03/07 11:04:01;;;;;;;28.98;14.68;;;;;;;5.25;41.50;100208.25;4355905;32;32977;-89
2022/03/07 11:06:29;;;;;;;32.72;14.85;;;;;;;5.56;40.44;100200.78;4348892;32;32208;-90
2022/03/07 11:08:57;;;;;;;29.02;14.63;;;;;;;5.46;41.00;100200.94;4351820;32;34776;-90
2022/03/07 11:11:29;;;;;;;30.52;15.60;;;;;;;5.68;40.27;100191.84;4349601;32;33482;-89
2022/03/07 11:13:58;;;;;;;31.15;17.20;;;;;;;5.63;40.11;100184.06;4347486;32;32501;-90
2022/03/07 11:16:29;;;;;;;;;;;;;;;5.14;42.03;100194.47;4349630;32;32714;-90
2022/03/07 11:18:58;;;;;;;29.00;13.93;;;;;;;5.23;41.85;100189.09;4355160;32;33206;-89
2022/03/07 11:21:35;;;;;;;29.00;14.65;;;;;;;5.58;40.26;100182.41;4349942;32;33724;-89
2022/03/07 11:24:03;;;;;;;28.87;15.32;;;;;;;5.48;40.57;100179.09;4355800;32;32572;-89
2022/03/07 11:26:33;;;;;;;33.42;16.10;;;;;;;5.50;40.21;100174.69;4366322;32;33448;-89
2022/03/07 11:29:01;;;;;;;33.22;16.40;;;;;;;5.44;40.37;100163.44;4348709;32;33849;-90
2022/03/07 11:31:29;;;;;;;31.50;15.02;;;;;;;5.45;40.39;100167.78;4352702;32;33072;-89
2022/03/07 11:33:57;;;;;;;30.85;14.50;;;;;;;5.31;40.46;100165.41;4348407;32;33079;-89
2022/03/07 11:36:27;;;;;;;37.15;15.88;;;;;;;5.14;41.27;100168.31;4347764;32;32926;-89